Ekwok, AK (99580)

8:34 PM AKDT on July 24, 2014 (GMT -0800)
New Stuyahok AP, New Stuyahok (PANW) Elev 302 ft | 59.45 °N, 157.33 °W | Change Station

Current weather conditions updated 38 minutes ago

Overcast
Overcast
61 °F
Feels Like 61 °F
N
5
Wind Variable Wind from West

Tomorrow is forecast to be nearly the same temperature as today.

Today
High -- | Low -- °F
--% Chance of Precip.
Yesterday
High -- | Low -- °F
Precip. -- in
5:58 AM 11:14 PM
Waning Crescent, 3% visible
Pressure 29.80 in
Visibility 10.0 miles
Clouds Few 2200 ft
Mostly Cloudy 3200 ft
Overcast 8000 ft
Dew Point 53 °F
Humidity 75%
Rainfall 0.31 in
Snow Depth Not available.
UV 1 out of 12
Pollen Not available.
Air Quality Not available.
Flu Activity Not available.
METAR PANW 250356Z AUTO 28004KT 10SM FEW022 BKN032 OVC080 16/12 A2986 RMK AO2 TSNO T01610116 BKN V SCT SLP089 $

More Conditions Fewer Conditions

Pressure 29.80 in
Visibility 10.0 miles
Clouds Few 2200 ft
Mostly Cloudy 3200 ft
Overcast 8000 ft
Dew Point 53 °F
Humidity 75%
Rainfall 0.31 in
Snow Depth Not available.
UV 1 out of 12
Pollen Not available.
Air Quality Not available.
Flu Activity Not available.
METAR PANW 250356Z AUTO 28004KT 10SM FEW022 BKN032 OVC080 16/12 A2986 RMK AO2 TSNO T01610116 BKN V SCT SLP089 $

More Conditions Fewer Conditions

10-Day Weather Forecast

Almanac

Astronomy

Jul. 24, 2014 Rise Set
Actual Time 5:58 AM AKDT 11:14 PM AKDT
Civil Twilight 4:53 AM AKDT 12:17 AM AKDT
Nautical Twilight 3:09 AM AKDT 2:04 AM AKDT
Astronomical Twilight Sun does not rise Sun does not rise
Moon 4:23 AM AKDT (7/24) 9:25 PM AKDT (7/24)
Length of Visible Light 19h 23m
Length of Day
17h 15m
Tomorrow will be 4m 17s shorter.
Waning Crescent, 3% of the Moon is Illuminated
Jul 25
Waning Crescent
Jul 26
New
Aug 3
First Quarter
Aug 10
Full
Aug 17
Last Quarter

Today's Extremes

State Highs State Lows

Community

WunderPhotos

Upload Photos

1,737,244 photos uploaded!

Nearby

Snow Depth

Station Depth Elevation
Port Graham 0 in 300 ft
Mcneil Canyon 1 in 1320 ft
MF Bradley River 25 in 2300 ft
Nuka Glacier 61 in 1250 ft
Cooper Lake 13 in 1200 ft

Earthquake Activity

City Distance Mag. Time & Date
No recent earthquake activity has been reported nearby.
Minimum magnitude displayed is 2.5.

Coastal Water Temperatures

Place Temperature
No Stations Reporting

Nearby Weather Stations

There are no personal weather stations in this area.